Time;durP1;ratioP1;P1;durP2;ratioP2;P2;SDS_P1;SDS_P2;PMS_P1;PMS_P2;Temp;Humidity;BMP_temperature;BMP_pressure;BME280_temperature;BME280_humidity;BME280_pressure;Samples;Min_cycle;Max_cycle;Signal;HPM_P1;HPM_P2
2021/08/08 00:00:45;;;;;;;1.27;0.60;;;15.80;75.60;;;;;;5132457;27;20532;-75
2021/08/08 00:03:11;;;;;;;3.42;0.93;;;15.70;75.70;;;;;;5132271;27;20064;-75
2021/08/08 00:05:36;;;;;;;4.28;0.60;;;15.70;75.90;;;;;;5132742;27;20029;-75
2021/08/08 00:08:02;;;;;;;1.27;0.65;;;15.70;76.10;;;;;;5132318;27;20045;-76
2021/08/08 00:10:28;;;;;;;1.55;0.60;;;15.60;76.50;;;;;;5132300;27;20024;-76
2021/08/08 00:12:53;;;;;;;3.22;1.20;;;15.60;76.80;;;;;;5132552;27;20127;-75
2021/08/08 00:15:19;;;;;;;1.85;0.80;;;15.60;77.00;;;;;;5132438;27;20066;-75
2021/08/08 00:17:44;;;;;;;3.10;1.20;;;15.60;76.90;;;;;;5132256;27;20020;-75
2021/08/08 00:20:11;;;;;;;3.22;0.70;;;15.50;76.50;;;;;;5132532;27;20059;-75
2021/08/08 00:22:37;;;;;;;2.10;1.00;;;15.50;76.60;;;;;;5132012;27;20475;-75
2021/08/08 00:25:05;;;;;;;1.95;0.70;;;15.50;76.80;;;;;;5132375;27;20097;-75
2021/08/08 00:27:30;;;;;;;5.07;0.88;;;15.40;76.30;;;;;;5132340;27;20518;-75
2021/08/08 00:29:56;;;;;;;6.40;1.00;;;15.50;76.00;;;;;;5132560;27;20114;-75
2021/08/08 00:32:23;;;;;;;2.85;0.70;;;15.50;75.50;;;;;;5132133;27;20469;-75
2021/08/08 00:34:49;;;;;;;1.92;0.80;;;15.60;75.30;;;;;;5132331;27;20033;-75
2021/08/08 00:37:14;;;;;;;2.17;0.65;;;15.60;75.30;;;;;;5131967;27;20027;-74
2021/08/08 00:39:40;;;;;;;2.80;0.70;;;15.60;75.20;;;;;;5132312;27;20027;-74
2021/08/08 00:42:06;;;;;;;6.07;0.60;;;15.60;75.10;;;;;;5132034;27;20030;-77
2021/08/08 00:44:32;;;;;;;3.63;0.85;;;15.60;75.30;;;;;;5131957;27;20027;-77
2021/08/08 00:46:57;;;;;;;1.92;0.60;;;15.70;75.40;;;;;;5133052;27;20035;-76
2021/08/08 00:49:24;;;;;;;3.25;0.65;;;15.60;75.30;;;;;;5132272;27;20467;-74
2021/08/08 00:51:50;;;;;;;4.70;0.80;;;15.60;76.00;;;;;;5132065;27;20057;-77
2021/08/08 00:54:18;;;;;;;2.80;0.63;;;15.60;76.10;;;;;;5132182;27;20439;-77
2021/08/08 00:56:44;;;;;;;2.30;0.90;;;15.50;76.50;;;;;;5132129;27;20042;-77
2021/08/08 00:59:09;;;;;;;4.10;0.85;;;15.50;76.70;;;;;;5131724;27;20075;-74
2021/08/08 01:01:45;;;;;;;2.80;0.90;;;15.40;76.80;;;;;;5132357;27;20047;-76
2021/08/08 01:04:14;;;;;;;2.22;0.63;;;15.50;76.60;;;;;;5133084;27;20103;-77
2021/08/08 01:06:45;;;;;;;6.80;3.30;;;15.50;76.80;;;;;;5117857;27;20118;-74
2021/08/08 01:09:12;;;;;;;7.00;2.53;;;15.40;76.50;;;;;;5135447;27;20027;-74
2021/08/08 01:11:40;;;;;;;2.88;0.70;;;15.40;76.30;;;;;;5135878;27;20114;-75
2021/08/08 01:14:07;;;;;;;2.42;0.43;;;15.50;76.40;;;;;;5135633;27;20062;-75
2021/08/08 01:16:34;;;;;;;2.60;0.90;;;15.50;76.30;;;;;;5135531;27;20054;-74
2021/08/08 01:19:00;;;;;;;4.00;0.93;;;15.50;76.50;;;;;;5135725;27;20019;-75
2021/08/08 01:21:31;;;;;;;2.45;0.70;;;15.50;76.80;;;;;;5135594;27;20068;-75
2021/08/08 01:24:02;;;;;;;5.03;0.73;;;15.50;77.00;;;;;;5135776;27;20019;-74
2021/08/08 01:26:30;;;;;;;1.48;0.80;;;15.40;77.50;;;;;;5135149;27;20450;-74
2021/08/08 01:28:57;;;;;;;2.03;0.60;;;15.40;77.70;;;;;;5136665;27;20019;-75
2021/08/08 01:31:23;;;;;;;2.50;0.82;;;15.30;78.00;;;;;;5136488;27;20089;-74
2021/08/08 01:33:49;;;;;;;3.03;0.70;;;15.40;78.30;;;;;;5135317;27;20023;-74
2021/08/08 01:36:16;;;;;;;3.85;0.95;;;15.30;78.90;;;;;;5136386;27;20038;-74
2021/08/08 01:39:05;;;;;;;3.35;0.68;;;15.10;78.90;;;;;;5135203;27;20383;-74
2021/08/08 01:41:41;;;;;;;2.97;0.80;;;15.10;79.40;;;;;;5135212;27;20023;-74
2021/08/08 01:44:07;;;;;;;1.13;0.50;;;15.00;79.90;;;;;;5134873;27;20019;-74
2021/08/08 01:46:33;;;;;;;0.80;0.75;;;14.90;80.30;;;;;;5135144;27;20023;-75
2021/08/08 01:49:00;;;;;;;2.90;0.55;;;14.80;80.50;;;;;;5134779;27;20497;-74
2021/08/08 01:51:26;;;;;;;2.65;0.68;;;14.80;81.20;;;;;;5134885;27;20043;-74
2021/08/08 01:53:52;;;;;;;2.65;0.90;;;14.70;81.50;;;;;;5134878;27;20027;-74
2021/08/08 01:56:18;;;;;;;1.50;0.88;;;14.70;81.80;;;;;;5134419;27;20031;-75
2021/08/08 01:58:44;;;;;;;2.30;0.80;;;14.60;82.00;;;;;;5135000;27;20020;-74
2021/08/08 02:01:10;;;;;;;1.98;0.60;;;14.60;82.00;;;;;;5134704;27;20391;-74
2021/08/08 02:03:38;;;;;;;1.10;0.60;;;14.50;82.10;;;;;;5134782;27;20022;-75
2021/08/08 02:06:06;;;;;;;3.13;0.60;;;14.50;82.40;;;;;;5134514;27;20027;-74
2021/08/08 02:08:32;;;;;;;1.20;0.70;;;14.40;82.40;;;;;;5134551;27;20360;-74
2021/08/08 02:10:58;;;;;;;1.77;0.50;;;14.40;82.40;;;;;;5134326;27;20053;-74
2021/08/08 02:13:23;;;;;;;2.33;0.68;;;14.30;82.60;;;;;;5135770;27;20050;-74
2021/08/08 02:15:49;;;;;;;0.80;0.50;;;14.30;82.90;;;;;;5134018;27;20031;-74
2021/08/08 02:18:16;;;;;;;1.50;0.60;;;14.20;82.90;;;;;;5134372;27;20077;-76
2021/08/08 02:20:42;;;;;;;3.45;0.90;;;14.20;83.10;;;;;;5135688;27;20017;-73
2021/08/08 02:23:08;;;;;;;2.50;1.02;;;14.20;83.10;;;;;;5134093;27;20122;-74
2021/08/08 02:25:34;;;;;;;3.13;0.70;;;14.20;83.10;;;;;;5133917;27;20055;-74
2021/08/08 02:27:59;;;;;;;1.77;0.50;;;14.10;83.00;;;;;;5135528;27;20033;-74
2021/08/08 02:30:25;;;;;;;1.70;0.73;;;14.10;83.30;;;;;;5133779;27;20483;-74
2021/08/08 02:32:51;;;;;;;6.15;0.80;;;14.00;83.30;;;;;;5135284;27;20023;-74
2021/08/08 02:35:17;;;;;;;2.78;0.50;;;14.00;83.50;;;;;;5133907;27;20467;-74
2021/08/08 02:37:42;;;;;;;0.88;0.50;;;14.00;83.50;;;;;;5133728;27;20083;-74
2021/08/08 02:40:09;;;;;;;2.85;0.70;;;13.90;83.80;;;;;;5133629;27;20023;-74
2021/08/08 02:42:34;;;;;;;1.33;0.80;;;13.90;83.90;;;;;;5133888;27;20073;-74
2021/08/08 02:45:00;;;;;;;1.35;0.70;;;13.70;84.00;;;;;;5135216;27;20576;-74
2021/08/08 02:47:29;;;;;;;1.50;0.52;;;13.70;84.60;;;;;;5133900;27;20019;-75
2021/08/08 02:49:54;;;;;;;1.30;0.50;;;13.60;85.10;;;;;;5134092;27;20023;-74
2021/08/08 02:52:20;;;;;;;1.13;0.68;;;13.50;85.50;;;;;;5137214;27;20075;-74
2021/08/08 02:54:45;;;;;;;1.98;0.60;;;13.50;85.70;;;;;;5155670;27;20038;-74
2021/08/08 02:57:11;;;;;;;2.28;0.57;;;13.60;85.40;;;;;;5136789;27;20031;-74
2021/08/08 02:59:37;;;;;;;5.32;1.00;;;13.60;86.10;;;;;;5137041;27;20117;-74
2021/08/08 03:02:03;;;;;;;0.73;0.47;;;13.50;85.60;;;;;;5155592;27;20023;-74
2021/08/08 03:04:29;;;;;;;4.00;0.88;;;13.50;86.10;;;;;;5136618;27;20023;-74
2021/08/08 03:06:54;;;;;;;2.75;0.70;;;13.40;86.10;;;;;;5155561;27;20045;-74
2021/08/08 03:09:20;;;;;;;3.83;0.70;;;13.40;86.70;;;;;;5136435;27;20028;-74
2021/08/08 03:11:45;;;;;;;2.50;0.50;;;13.40;85.70;;;;;;5136624;27;20023;-74
2021/08/08 03:14:16;;;;;;;4.03;0.47;;;13.40;85.80;;;;;;5136475;27;20026;-74
2021/08/08 03:16:42;;;;;;;3.65;0.75;;;13.40;85.90;;;;;;5136803;27;20041;-74
2021/08/08 03:19:08;;;;;;;3.70;0.63;;;13.50;85.60;;;;;;5136362;27;20022;-74
2021/08/08 03:21:34;;;;;;;1.73;0.50;;;13.40;85.80;;;;;;5136627;27;20026;-76
2021/08/08 03:24:00;;;;;;;1.55;0.55;;;13.40;85.90;;;;;;5136423;27;20018;-76
2021/08/08 03:26:26;;;;;;;2.05;0.90;;;13.40;85.80;;;;;;5136505;27;20061;-76
2021/08/08 03:28:52;;;;;;;1.92;0.70;;;13.40;85.70;;;;;;5136167;27;20026;-77
2021/08/08 03:31:19;;;;;;;5.25;0.95;;;13.40;85.60;;;;;;5154713;27;20026;-74
2021/08/08 03:33:44;;;;;;;2.20;0.80;;;13.40;85.60;;;;;;5137317;27;20029;-74
2021/08/08 03:36:11;;;;;;;1.90;0.60;;;13.40;85.70;;;;;;5159144;27;20034;-76
2021/08/08 03:38:37;;;;;;;1.88;0.73;;;13.40;85.70;;;;;;5142601;27;20025;-74
2021/08/08 03:41:03;;;;;;;2.58;0.38;;;13.30;86.10;;;;;;5159751;27;20034;-74
2021/08/08 03:43:28;;;;;;;0.82;0.50;;;13.20;85.90;;;;;;5137712;27;20023;-74
2021/08/08 03:45:54;;;;;;;4.00;0.60;;;13.20;86.20;;;;;;5136485;27;20041;-74
2021/08/08 03:48:20;;;;;;;3.00;0.80;;;13.20;86.30;;;;;;5154563;27;20054;-74
2021/08/08 03:50:45;;;;;;;4.03;0.93;;;13.10;86.50;;;;;;5154635;27;20050;-74
2021/08/08 03:53:11;;;;;;;1.83;0.75;;;13.10;86.50;;;;;;5135996;27;20031;-74
2021/08/08 03:55:36;;;;;;;1.48;0.60;;;13.20;86.40;;;;;;5136103;27;20355;-74
2021/08/08 03:58:02;;;;;;;2.78;0.70;;;13.10;86.40;;;;;;5136276;27;20031;-74
2021/08/08 04:00:28;;;;;;;2.97;0.75;;;13.10;86.30;;;;;;5154628;27;20423;-74
2021/08/08 04:02:53;;;;;;;0.77;0.40;;;13.10;86.20;;;;;;5136277;27;20027;-74
2021/08/08 04:05:19;;;;;;;5.00;0.82;;;13.10;86.40;;;;;;5136364;27;20109;-74
2021/08/08 04:07:44;;;;;;;2.17;0.65;;;13.00;86.20;;;;;;5135978;27;20072;-74
2021/08/08 04:10:10;;;;;;;3.70;1.08;;;13.00;86.30;;;;;;5135891;27;20023;-74
2021/08/08 04:12:36;;;;;;;1.08;0.65;;;13.00;86.60;;;;;;5135568;27;20023;-75
2021/08/08 04:15:03;;;;;;;1.23;0.50;;;13.00;86.50;;;;;;5135763;27;20019;-75
2021/08/08 04:17:29;;;;;;;1.48;0.52;;;13.00;86.30;;;;;;5136007;27;20062;-75
2021/08/08 04:19:55;;;;;;;5.13;0.95;;;13.10;86.40;;;;;;5136053;27;20492;-75
2021/08/08 04:22:21;;;;;;;3.55;0.70;;;13.00;86.30;;;;;;5135748;27;20061;-75
2021/08/08 04:24:46;;;;;;;0.88;0.50;;;13.10;86.10;;;;;;5135717;27;20022;-75
2021/08/08 04:27:13;;;;;;;2.75;0.88;;;13.00;86.00;;;;;;5135977;27;20031;-75
2021/08/08 04:29:39;;;;;;;1.95;0.77;;;13.00;85.90;;;;;;5154329;27;20019;-75
2021/08/08 04:32:05;;;;;;;2.13;0.70;;;13.00;85.80;;;;;;5154182;27;20052;-76
2021/08/08 04:34:31;;;;;;;4.53;0.55;;;13.00;85.90;;;;;;5135261;27;20027;-75
2021/08/08 04:36:58;;;;;;;5.13;0.88;;;13.00;85.90;;;;;;5135774;27;20031;-76
2021/08/08 04:39:23;;;;;;;2.63;0.60;;;13.00;85.70;;;;;;5135724;27;20105;-76
2021/08/08 04:41:49;;;;;;;1.50;0.60;;;13.00;85.70;;;;;;5138977;27;20122;-76
2021/08/08 04:44:14;;;;;;;1.42;0.50;;;13.10;85.70;;;;;;5139450;27;20019;-76
2021/08/08 04:46:40;;;;;;;3.53;0.70;;;13.20;85.70;;;;;;5158030;27;20383;-76
2021/08/08 04:49:06;;;;;;;3.17;0.68;;;13.20;85.10;;;;;;5139587;27;20022;-75
2021/08/08 04:51:31;;;;;;;2.25;0.50;;;13.30;85.10;;;;;;5139477;27;20141;-76
2021/08/08 04:53:57;;;;;;;1.85;0.70;;;13.40;85.00;;;;;;5139497;27;20416;-76
2021/08/08 04:56:22;;;;;;;0.57;0.32;;;13.40;84.30;;;;;;5139304;27;20122;-76
2021/08/08 04:58:48;;;;;;;0.90;0.80;;;13.50;84.20;;;;;;5139474;27;20106;-76
2021/08/08 05:01:13;;;;;;;2.78;1.30;;;13.50;83.90;;;;;;5139503;27;20035;-76
2021/08/08 05:03:39;;;;;;;1.90;0.68;;;13.60;83.60;;;;;;5139379;27;20041;-75
2021/08/08 05:06:06;;;;;;;0.55;0.43;;;13.70;83.30;;;;;;5139381;27;20061;-75
2021/08/08 05:08:31;;;;;;;2.80;0.50;;;13.70;83.20;;;;;;5139256;27;20035;-76
2021/08/08 05:10:57;;;;;;;2.22;0.82;;;13.80;83.20;;;;;;5139019;27;20490;-76
2021/08/08 05:13:27;;;;;;;1.00;0.65;;;13.90;83.00;;;;;;5139170;27;20432;-76
2021/08/08 05:15:53;;;;;;;1.05;0.40;;;13.90;83.00;;;;;;5157698;27;20026;-76
2021/08/08 05:18:19;;;;;;;1.50;0.57;;;14.00;83.00;;;;;;5139122;27;20044;-76
2021/08/08 05:20:45;;;;;;;5.82;0.50;;;14.00;82.80;;;;;;5138997;27;20030;-76
2021/08/08 05:23:10;;;;;;;2.38;0.47;;;14.10;82.40;;;;;;5139139;27;20027;-76
2021/08/08 05:25:37;;;;;;;3.80;0.45;;;14.10;82.30;;;;;;5139092;27;20049;-75
2021/08/08 05:28:03;;;;;;;0.70;0.40;;;14.30;81.90;;;;;;5138746;27;20506;-76
2021/08/08 05:30:28;;;;;;;3.30;0.55;;;14.40;81.70;;;;;;5138852;27;20022;-76
2021/08/08 05:32:54;;;;;;;1.15;0.43;;;14.40;80.90;;;;;;5138722;27;20035;-76
2021/08/08 05:35:20;;;;;;;0.60;0.40;;;14.50;80.70;;;;;;5157454;27;20083;-76
2021/08/08 05:37:45;;;;;;;4.15;0.50;;;14.60;80.20;;;;;;5138858;27;20030;-75
2021/08/08 05:40:11;;;;;;;1.42;0.45;;;14.60;79.80;;;;;;5138328;27;20019;-76
2021/08/08 05:42:37;;;;;;;2.90;0.77;;;14.80;79.50;;;;;;5138777;27;20027;-76
2021/08/08 05:45:06;;;;;;;2.65;0.60;;;14.80;78.60;;;;;;5138650;27;20019;-76
2021/08/08 05:47:32;;;;;;;1.23;0.40;;;14.90;79.30;;;;;;5138595;27;20015;-77
2021/08/08 05:49:57;;;;;;;1.30;0.45;;;14.90;78.30;;;;;;5138068;27;20493;-77
2021/08/08 05:52:24;;;;;;;2.67;0.65;;;15.10;78.30;;;;;;5156391;27;20118;-77
2021/08/08 05:54:49;;;;;;;2.83;0.80;;;15.10;78.20;;;;;;5138601;27;20046;-77
2021/08/08 05:57:15;;;;;;;1.60;0.47;;;15.20;78.90;;;;;;5138342;27;20042;-77
2021/08/08 05:59:40;;;;;;;3.47;0.80;;;15.30;78.20;;;;;;5156619;27;20099;-77
2021/08/08 06:02:06;;;;;;;2.08;0.50;;;15.40;77.80;;;;;;5138010;27;20547;-76
2021/08/08 06:04:32;;;;;;;2.08;0.65;;;15.50;77.40;;;;;;5138394;27;20095;-76
2021/08/08 06:06:57;;;;;;;2.17;0.60;;;15.60;76.80;;;;;;5138419;27;20022;-77
2021/08/08 06:09:23;;;;;;;3.00;0.80;;;15.70;76.50;;;;;;5138353;27;20019;-77
2021/08/08 06:11:49;;;;;;;1.33;0.60;;;15.70;74.70;;;;;;5137859;27;20054;-77
2021/08/08 06:14:15;;;;;;;2.80;0.60;;;15.80;73.70;;;;;;5156363;27;20034;-77
2021/08/08 06:16:40;;;;;;;1.63;0.47;;;15.90;74.10;;;;;;5137694;27;20358;-77
2021/08/08 06:19:07;;;;;;;3.88;0.70;;;16.00;73.40;;;;;;5137766;27;20026;-76
2021/08/08 06:21:33;;;;;;;3.03;0.75;;;16.00;72.40;;;;;;5137595;27;20378;-77
2021/08/08 06:23:59;;;;;;;5.90;0.80;;;16.10;71.60;;;;;;5138053;27;20023;-77
2021/08/08 06:26:25;;;;;;;1.35;0.63;;;16.10;70.90;;;;;;5156176;27;20463;-76
2021/08/08 06:28:53;;;;;;;3.17;0.60;;;16.30;71.20;;;;;;5137652;27;20178;-76
2021/08/08 06:31:18;;;;;;;4.53;0.60;;;16.30;70.30;;;;;;5136670;27;20030;-76
2021/08/08 06:33:44;;;;;;;3.03;0.70;;;16.40;69.50;;;;;;5136874;27;20026;-77
2021/08/08 06:36:09;;;;;;;1.77;0.40;;;16.30;69.40;;;;;;5156415;27;20019;-76
2021/08/08 06:38:35;;;;;;;8.77;1.00;;;16.40;70.10;;;;;;5137824;27;20478;-76
2021/08/08 06:41:01;;;;;;;3.95;0.65;;;16.60;69.00;;;;;;5137621;27;20025;-77
2021/08/08 06:43:28;;;;;;;4.93;0.73;;;16.60;68.50;;;;;;5138360;27;20023;-77
2021/08/08 06:45:54;;;;;;;3.13;0.70;;;16.70;69.10;;;;;;5138936;27;20113;-77
2021/08/08 06:48:19;;;;;;;1.52;0.40;;;16.80;68.00;;;;;;5138942;27;20046;-78
2021/08/08 06:50:45;;;;;;;3.45;0.80;;;17.00;68.00;;;;;;5143707;27;20038;-77
2021/08/08 06:53:10;;;;;;;3.88;1.10;;;16.90;65.20;;;;;;5138419;27;20022;-76
2021/08/08 06:55:36;;;;;;;5.05;0.90;;;17.00;64.60;;;;;;5138737;27;20110;-76
2021/08/08 06:58:02;;;;;;;6.32;1.00;;;17.00;65.20;;;;;;5145384;27;20034;-76
2021/08/08 07:00:28;;;;;;;4.35;0.70;;;17.10;64.00;;;;;;5141600;27;20122;-76
2021/08/08 07:02:54;;;;;;;3.20;0.80;;;17.10;63.30;;;;;;5156043;27;20113;-74
2021/08/08 07:05:20;;;;;;;3.58;0.80;;;17.00;62.30;;;;;;5138633;27;20041;-74
2021/08/08 07:07:46;;;;;;;2.53;0.50;;;17.00;61.50;;;;;;5143423;27;20534;-75
2021/08/08 07:10:12;;;;;;;5.55;0.90;;;17.10;62.60;;;;;;5137187;27;20065;-74
2021/08/08 07:12:38;;;;;;;2.85;1.17;;;17.00;62.40;;;;;;5136414;27;20050;-75
2021/08/08 07:15:09;;;;;;;5.85;1.98;;;17.00;62.80;;;;;;5136411;27;20051;-75
2021/08/08 07:17:35;;;;;;;2.50;0.55;;;17.10;62.90;;;;;;5136595;27;20031;-77
2021/08/08 07:20:00;;;;;;;5.70;0.60;;;17.10;63.20;;;;;;5136402;27;20075;-77
2021/08/08 07:22:26;;;;;;;4.13;0.63;;;17.00;62.60;;;;;;5136327;27;20026;-76
2021/08/08 07:24:52;;;;;;;3.55;0.77;;;17.10;63.80;;;;;;5136269;27;20023;-77
2021/08/08 07:27:21;;;;;;;3.13;0.57;;;17.10;64.20;;;;;;5136451;27;20019;-77
2021/08/08 07:29:46;;;;;;;6.35;1.15;;;17.30;62.20;;;;;;5155246;27;20019;-76
2021/08/08 07:32:12;;;;;;;3.70;0.95;;;17.20;62.90;;;;;;5136142;27;20030;-76
2021/08/08 07:34:38;;;;;;;4.63;1.08;;;17.20;63.40;;;;;;5136155;27;20109;-75
2021/08/08 07:37:04;;;;;;;4.85;0.75;;;17.20;62.10;;;;;;5136466;27;20080;-75
2021/08/08 07:39:31;;;;;;;3.45;1.00;;;17.20;63.60;;;;;;5136361;27;20060;-75
2021/08/08 07:41:57;;;;;;;3.88;0.95;;;17.20;63.20;;;;;;5119521;27;20122;-74
2021/08/08 07:44:23;;;;;;;1.95;0.70;;;17.20;63.50;;;;;;5154862;27;20018;-75
2021/08/08 07:46:49;;;;;;;2.70;0.60;;;17.20;63.10;;;;;;5136359;27;20071;-75
2021/08/08 07:49:14;;;;;;;11.90;7.55;;;17.20;64.10;;;;;;5136002;27;20518;-74
2021/08/08 07:51:40;;;;;;;2.63;0.75;;;17.40;63.70;;;;;;5154712;27;20051;-75
2021/08/08 07:54:07;;;;;;;5.10;0.80;;;17.50;63.90;;;;;;5135973;27;20022;-77
2021/08/08 07:56:34;;;;;;;3.38;0.80;;;17.50;62.70;;;;;;5154531;27;20062;-77
2021/08/08 07:58:59;;;;;;;2.75;1.00;;;17.60;61.60;;;;;;5135876;27;20375;-77
2021/08/08 08:01:25;;;;;;;3.97;0.93;;;17.60;60.40;;;;;;5136061;27;20113;-74
2021/08/08 08:03:51;;;;;;;2.72;1.20;;;17.60;61.50;;;;;;5136023;27;20082;-74
2021/08/08 08:06:16;;;;;;;4.55;1.10;;;17.70;62.10;;;;;;5153982;27;20075;-75
2021/08/08 08:08:52;;;;;;;6.78;1.02;;;17.80;62.00;;;;;;5154323;27;20546;-74
2021/08/08 08:11:19;;;;;;;4.82;1.08;;;17.90;61.40;;;;;;5151468;27;20034;-75
2021/08/08 08:13:47;;;;;;;5.63;2.10;;;18.00;61.10;;;;;;5136223;27;20128;-74
2021/08/08 08:16:12;;;;;;;3.92;1.17;;;18.20;60.70;;;;;;5140086;27;20019;-74
2021/08/08 08:18:41;;;;;;;4.72;0.95;;;18.10;60.90;;;;;;5140121;27;20038;-76
2021/08/08 08:21:09;;;;;;;3.25;0.90;;;18.10;60.30;;;;;;5140133;27;20023;-75
2021/08/08 08:23:47;;;;;;;2.75;0.75;;;18.10;60.10;;;;;;5139823;27;20117;-74
2021/08/08 08:26:12;;;;;;;4.22;1.02;;;18.10;60.20;;;;;;5138527;27;20038;-74
2021/08/08 08:28:41;;;;;;;4.05;0.70;;;18.10;61.00;;;;;;5122577;27;20026;-74
2021/08/08 08:31:09;;;;;;;5.13;0.98;;;18.20;61.70;;;;;;5139087;27;20090;-76
2021/08/08 08:33:40;;;;;;;5.68;0.80;;;18.30;60.80;;;;;;5122860;27;20054;-76
2021/08/08 08:36:07;;;;;;;3.92;0.80;;;18.40;60.50;;;;;;5139863;27;20056;-76
2021/08/08 08:38:35;;;;;;;6.80;1.42;;;18.40;58.50;;;;;;5105577;27;20031;-74
2021/08/08 08:41:05;;;;;;;2.55;0.70;;;18.30;58.40;;;;;;5139763;27;20050;-74
2021/08/08 08:43:31;;;;;;;1.42;0.63;;;18.40;59.90;;;;;;5123160;27;20026;-75
2021/08/08 08:45:59;;;;;;;3.75;0.90;;;18.60;59.00;;;;;;5157960;27;20026;-76
2021/08/08 08:48:26;;;;;;;3.13;0.88;;;18.50;55.90;;;;;;5122658;27;20134;-75
2021/08/08 08:50:53;;;;;;;3.15;1.00;;;18.40;55.80;;;;;;5135720;27;20499;-74
2021/08/08 08:53:21;;;;;;;5.97;1.95;;;18.50;56.40;;;;;;5136018;27;20020;-74
2021/08/08 08:55:47;;;;;;;2.67;0.88;;;18.40;54.50;;;;;;5135908;27;20034;-75
2021/08/08 08:58:13;;;;;;;3.03;0.93;;;18.40;54.70;;;;;;5137006;27;20050;-75
2021/08/08 09:00:41;;;;;;;3.08;0.68;;;18.40;54.00;;;;;;5118559;27;20506;-75
2021/08/08 09:03:08;;;;;;;3.47;0.73;;;18.40;55.60;;;;;;5137106;27;20023;-75
2021/08/08 09:05:33;;;;;;;4.68;0.73;;;18.60;55.70;;;;;;5136126;27;20027;-76
2021/08/08 09:08:19;;;;;;;4.03;0.98;;;18.70;55.70;;;;;;5118934;27;20114;-76
2021/08/08 09:10:45;;;;;;;4.88;1.05;;;18.70;54.90;;;;;;5121429;27;20122;-76
2021/08/08 09:13:11;;;;;;;2.15;0.80;;;18.80;54.80;;;;;;5134269;27;20067;-77
2021/08/08 09:15:42;;;;;;;5.18;1.00;;;18.80;56.40;;;;;;5135496;27;20476;-76
2021/08/08 09:18:13;;;;;;;3.45;0.73;;;18.80;54.00;;;;;;5118779;27;20201;-75
2021/08/08 09:20:41;;;;;;;4.25;0.68;;;18.80;53.60;;;;;;5135414;27;20019;-75
2021/08/08 09:23:06;;;;;;;4.03;0.90;;;18.70;53.90;;;;;;5119415;27;20053;-74
2021/08/08 09:25:32;;;;;;;2.55;0.90;;;18.70;54.60;;;;;;5138625;27;20019;-74
2021/08/08 09:28:09;;;;;;;2.70;0.90;;;18.70;54.40;;;;;;5123396;27;20034;-75
2021/08/08 09:30:40;;;;;;;4.50;1.00;;;18.60;53.40;;;;;;5139275;27;20022;-74
2021/08/08 09:33:09;;;;;;;2.13;0.70;;;18.60;53.00;;;;;;5137091;27;20023;-74
2021/08/08 09:35:41;;;;;;;7.88;1.00;;;18.50;53.00;;;;;;5135399;27;20087;-74
2021/08/08 09:38:11;;;;;;;3.45;0.90;;;18.60;52.70;;;;;;5135043;27;20034;-74
2021/08/08 09:40:42;;;;;;;1.50;0.60;;;18.70;53.40;;;;;;5118232;27;20035;-75
2021/08/08 09:43:11;;;;;;;2.22;0.88;;;19.00;51.90;;;;;;5135572;27;20027;-74
2021/08/08 09:45:45;;;;;;;4.15;0.80;;;19.20;51.80;;;;;;5118494;27;20026;-74
2021/08/08 09:48:12;;;;;;;3.50;0.80;;;19.30;51.40;;;;;;5134939;27;20034;-74
2021/08/08 09:50:42;;;;;;;2.42;0.60;;;19.20;50.50;;;;;;5142685;27;20509;-74
2021/08/08 09:53:18;;;;;;;4.72;0.90;;;19.40;50.40;;;;;;5104638;27;20364;-73
2021/08/08 09:55:47;;;;;;;3.80;0.80;;;19.50;51.10;;;;;;5121506;27;20023;-74
2021/08/08 09:58:22;;;;;;;3.83;0.70;;;19.50;50.80;;;;;;5156862;27;20102;-74
2021/08/08 10:00:57;;;;;;;3.80;0.57;;;19.30;50.30;;;;;;5156867;27;20079;-73
2021/08/08 10:03:23;;;;;;;2.20;1.50;;;19.40;50.30;;;;;;5138378;27;20031;-74
2021/08/08 10:05:52;;;;;;;3.55;0.70;;;19.50;49.10;;;;;;5137428;27;20026;-74
2021/08/08 10:08:24;;;;;;;4.85;0.90;;;19.50;50.20;;;;;;5136516;27;20046;-75
2021/08/08 10:10:53;;;;;;;2.92;0.73;;;19.70;49.50;;;;;;5137634;27;20071;-74
2021/08/08 10:13:42;;;;;;;2.72;0.73;;;19.80;49.90;;;;;;5138459;27;20079;-74
2021/08/08 10:16:12;;;;;;;2.88;1.00;;;20.30;48.50;;;;;;5137805;27;20482;-75
2021/08/08 10:18:40;;;;;;;2.10;0.85;;;20.40;47.60;;;;;;5138016;27;20031;-74
2021/08/08 10:21:07;;;;;;;3.25;0.82;;;20.30;47.70;;;;;;5138158;27;20046;-74
2021/08/08 10:23:38;;;;;;;1.45;0.70;;;19.90;48.10;;;;;;5155565;27;20022;-75
2021/08/08 10:26:06;;;;;;;4.97;1.10;;;19.80;48.90;;;;;;5136684;27;20050;-75
2021/08/08 10:28:33;;;;;;;3.63;0.90;;;20.00;50.50;;;;;;5120673;27;20023;-75
2021/08/08 10:31:01;;;;;;;3.42;0.77;;;20.40;47.80;;;;;;5155908;27;20068;-75
2021/08/08 10:33:26;;;;;;;4.93;0.85;;;20.50;47.10;;;;;;5137350;27;20493;-73
2021/08/08 10:35:52;;;;;;;4.00;0.85;;;20.40;47.60;;;;;;5137480;27;20026;-77
2021/08/08 10:38:20;;;;;;;1.83;0.80;;;20.60;47.00;;;;;;5137157;27;20065;-77
2021/08/08 10:40:48;;;;;;;3.47;0.55;;;20.20;46.80;;;;;;5137457;27;20053;-76
2021/08/08 10:43:28;;;;;;;4.18;2.50;;;20.20;47.40;;;;;;5137105;27;20043;-77
2021/08/08 10:46:07;;;;;;;2.22;0.77;;;20.00;48.00;;;;;;5134293;27;20029;-77
2021/08/08 10:48:38;;;;;;;10.05;6.95;;;20.50;47.70;;;;;;5156659;27;20095;-77
2021/08/08 10:51:25;;;;;;;2.78;1.05;;;20.70;46.00;;;;;;5111937;27;20051;-75
2021/08/08 10:54:08;;;;;;;4.82;1.13;;;20.50;45.40;;;;;;5134612;27;20027;-74
2021/08/08 10:56:48;;;;;;;2.17;0.88;;;20.20;46.20;;;;;;5120993;27;20031;-74
2021/08/08 10:59:39;;;;;;;3.10;0.88;;;20.30;46.60;;;;;;5134863;27;20106;-75
2021/08/08 11:02:16;;;;;;;1.77;0.70;;;20.60;45.50;;;;;;5091168;28;20115;-75
2021/08/08 11:04:42;;;;;;;2.30;0.98;;;20.70;44.70;;;;;;5058118;28;20036;-75
2021/08/08 11:07:09;;;;;;;2.90;0.65;;;20.90;45.10;;;;;;5074768;28;20073;-76
2021/08/08 11:09:37;;;;;;;2.58;0.70;;;20.80;43.60;;;;;;5074596;28;20519;-75
2021/08/08 11:12:05;;;;;;;3.17;0.70;;;20.40;45.30;;;;;;5058040;28;20032;-75
2021/08/08 11:14:32;;;;;;;2.63;0.60;;;20.40;44.30;;;;;;5074327;28;20492;-77
2021/08/08 11:17:06;;;;;;;2.97;0.85;;;20.10;44.80;;;;;;5074796;28;20097;-72
2021/08/08 11:19:41;;;;;;;1.75;0.73;;;20.10;45.50;;;;;;5074389;28;20020;-74
2021/08/08 11:22:14;;;;;;;4.55;0.75;;;20.20;44.60;;;;;;5074141;28;20063;-73
2021/08/08 11:24:42;;;;;;;2.13;0.70;;;20.20;45.60;;;;;;5091618;28;20467;-72
2021/08/08 11:27:08;;;;;;;4.07;0.60;;;20.40;45.00;;;;;;5074325;28;20039;-72
2021/08/08 11:29:35;;;;;;;2.63;0.82;;;20.60;43.50;;;;;;5074205;28;20028;-71
2021/08/08 11:32:03;;;;;;;2.03;0.70;;;20.60;43.20;;;;;;5077963;28;20546;-81
2021/08/08 11:34:29;;;;;;;3.00;0.88;;;20.50;44.20;;;;;;5134897;27;20076;-85
2021/08/08 11:36:57;;;;;;;3.78;0.70;;;20.50;44.20;;;;;;5133160;27;20135;-82
2021/08/08 11:39:35;;;;;;;1.20;0.45;;;20.50;43.60;;;;;;5133268;27;20034;-73
2021/08/08 11:42:08;;;;;;;1.52;0.60;;;20.40;42.90;;;;;;5133165;27;20486;-73
2021/08/08 11:44:40;;;;;;;3.60;1.20;;;20.20;42.70;;;;;;5133267;27;20019;-77
2021/08/08 11:47:10;;;;;;;3.58;0.75;;;20.10;43.00;;;;;;5133092;27;20023;-75
2021/08/08 11:49:47;;;;;;;2.10;0.80;;;20.00;42.40;;;;;;5132589;27;20019;-78
2021/08/08 11:52:16;;;;;;;4.93;0.95;;;19.80;41.90;;;;;;5132908;27;20047;-79
2021/08/08 11:54:43;;;;;;;2.80;0.70;;;19.60;43.70;;;;;;5115603;28;20027;-78
2021/08/08 11:57:12;;;;;;;7.38;0.80;;;19.60;44.20;;;;;;5132553;27;20114;-79
2021/08/08 11:59:38;;;;;;;2.28;0.90;;;19.80;43.30;;;;;;5132786;27;20153;-79
2021/08/08 12:02:10;;;;;;;2.60;0.82;;;19.70;41.60;;;;;;5134190;27;20031;-80
2021/08/08 12:04:39;;;;;;;2.03;0.60;;;19.50;42.50;;;;;;5134310;27;20376;-78
2021/08/08 12:07:08;;;;;;;1.23;0.57;;;19.60;42.70;;;;;;5133037;27;20023;-78
2021/08/08 12:09:34;;;;;;;2.15;0.77;;;19.70;43.10;;;;;;5116488;28;20062;-78
2021/08/08 12:12:02;;;;;;;4.03;1.10;;;19.80;43.30;;;;;;5133982;27;20023;-76
2021/08/08 12:14:36;;;;;;;1.88;1.00;;;19.90;43.70;;;;;;5132824;27;20024;-77
2021/08/08 12:17:06;;;;;;;1.45;0.63;;;19.90;44.30;;;;;;5134556;27;20039;-77
2021/08/08 12:19:33;;;;;;;3.42;0.98;;;20.00;43.90;;;;;;5133746;27;20018;-75
2021/08/08 12:22:05;;;;;;;7.35;2.10;;;20.10;42.50;;;;;;5132460;27;20027;-78
2021/08/08 12:24:39;;;;;;;4.57;1.10;;;20.10;42.20;;;;;;5115384;27;20028;-78
2021/08/08 12:27:07;;;;;;;0.85;0.55;;;20.30;42.40;;;;;;5115820;28;20031;-75
2021/08/08 12:29:38;;;;;;;3.00;0.80;;;20.30;43.30;;;;;;5132551;27;20528;-77
2021/08/08 12:32:05;;;;;;;10.80;1.30;;;20.50;43.10;;;;;;5133411;27;20028;-84
2021/08/08 12:34:31;;;;;;;6.38;1.08;;;20.50;42.70;;;;;;5134370;27;20158;-80
2021/08/08 12:37:08;;;;;;;5.88;1.58;;;20.70;42.50;;;;;;5133831;27;20412;-75
2021/08/08 12:39:36;;;;;;;3.95;0.70;;;20.90;42.00;;;;;;5133377;27;20019;-75
2021/08/08 12:42:02;;;;;;;3.35;0.73;;;20.80;41.40;;;;;;5132678;27;20479;-75
2021/08/08 12:44:35;;;;;;;4.32;0.75;;;20.90;42.20;;;;;;5132488;27;20027;-75
2021/08/08 12:47:03;;;;;;;3.60;0.68;;;20.90;41.90;;;;;;5133203;27;20122;-78